Time;durP1;ratioP1;P1;durP2;ratioP2;P2;SDS_P1;SDS_P2;PMS_P1;PMS_P2;Temp;Humidity;BMP_temperature;BMP_pressure;BME280_temperature;BME280_humidity;BME280_pressure;Samples;Min_cycle;Max_cycle;Signal;HPM_P1;HPM_P2
2022/07/08 00:02:04;;;;;;;0.50;0.40;;;16.80;99.90;;;;;;4976327;28;20457;-80
2022/07/08 00:04:32;;;;;;;0.50;0.50;;;16.80;99.90;;;;;;4976226;28;20548;-81
2022/07/08 00:06:59;;;;;;;0.40;0.40;;;16.80;99.90;;;;;;4976691;28;20480;-80
2022/07/08 00:09:26;;;;;;;0.50;0.50;;;17.00;99.90;;;;;;4976128;28;20445;-81
2022/07/08 00:11:53;;;;;;;0.73;0.50;;;16.90;99.90;;;;;;4975797;28;20485;-81
2022/07/08 00:14:21;;;;;;;0.90;0.40;;;16.80;99.90;;;;;;4975746;28;20945;-81
2022/07/08 00:16:48;;;;;;;2.50;0.70;;;16.70;99.90;;;;;;4975636;28;20480;-81
2022/07/08 00:19:16;;;;;;;2.23;0.30;;;16.60;99.90;;;;;;4975578;28;21026;-81
2022/07/08 00:21:45;;;;;;;0.50;0.50;;;16.50;99.90;;;;;;4975870;28;20458;-81
2022/07/08 00:24:12;;;;;;;0.50;0.50;;;16.40;99.90;;;;;;4975553;28;20452;-81
2022/07/08 00:26:39;;;;;;;0.40;0.30;;;16.40;99.90;;;;;;4975758;28;20476;-81
2022/07/08 00:29:06;;;;;;;0.40;0.40;;;16.40;99.90;;;;;;4975776;28;20457;-81
2022/07/08 00:31:33;;;;;;;0.50;0.50;;;16.40;99.90;;;;;;4975425;28;20453;-82
2022/07/08 00:34:00;;;;;;;0.67;0.53;;;16.40;99.90;;;;;;4975403;28;20945;-81
2022/07/08 00:36:27;;;;;;;0.60;0.40;;;16.30;99.90;;;;;;4975546;28;20480;-81
2022/07/08 00:38:56;;;;;;;3.17;0.50;;;16.30;99.90;;;;;;4975479;28;20535;-82
2022/07/08 00:41:23;;;;;;;0.40;0.40;;;16.20;99.90;;;;;;4975562;28;20450;-81
2022/07/08 00:43:50;;;;;;;0.57;0.57;;;16.20;99.90;;;;;;4975530;28;20456;-81
2022/07/08 00:46:17;;;;;;;0.97;0.57;;;16.10;99.90;;;;;;4975390;28;20453;-81
2022/07/08 00:48:44;;;;;;;0.63;0.40;;;16.00;99.90;;;;;;4975539;28;20805;-81
2022/07/08 00:51:13;;;;;;;1.70;0.73;;;15.90;99.90;;;;;;4975085;28;20457;-81
2022/07/08 00:53:42;;;;;;;0.60;0.60;;;15.90;99.90;;;;;;4975028;28;20453;-81
2022/07/08 00:56:11;;;;;;;0.60;0.60;;;15.80;99.90;;;;;;4975185;28;20450;-81
2022/07/08 00:58:40;;;;;;;0.67;0.60;;;15.70;99.90;;;;;;4974848;28;21016;-81
2022/07/08 01:01:07;;;;;;;1.03;0.57;;;15.70;99.90;;;;;;4975222;28;20833;-81
2022/07/08 01:03:34;;;;;;;0.50;0.50;;;15.70;99.90;;;;;;4975144;28;20453;-81
2022/07/08 01:06:01;;;;;;;0.63;0.63;;;15.50;99.90;;;;;;4974901;28;20953;-81
2022/07/08 01:08:28;;;;;;;0.50;0.50;;;15.50;99.90;;;;;;4974348;28;20465;-81
2022/07/08 01:10:55;;;;;;;0.40;0.40;;;15.50;99.90;;;;;;4974869;28;20465;-81
2022/07/08 01:13:24;;;;;;;2.50;0.40;;;15.40;99.90;;;;;;4975054;28;20437;-81
2022/07/08 01:15:51;;;;;;;0.53;0.40;;;15.40;99.90;;;;;;4974856;28;20557;-81
2022/07/08 01:18:22;;;;;;;0.70;0.43;;;15.30;99.90;;;;;;4974785;28;20492;-81
2022/07/08 01:20:50;;;;;;;0.60;0.50;;;15.30;99.90;;;;;;4974903;28;20453;-81
2022/07/08 01:23:17;;;;;;;0.77;0.50;;;15.20;99.90;;;;;;4974856;28;20450;-81
2022/07/08 01:25:45;;;;;;;2.47;0.60;;;15.20;99.90;;;;;;4974820;28;20464;-81
2022/07/08 01:28:11;;;;;;;0.53;0.53;;;15.10;99.90;;;;;;4974735;28;20837;-81
2022/07/08 01:30:38;;;;;;;0.40;0.40;;;15.00;99.90;;;;;;4975059;28;20441;-81
2022/07/08 01:33:05;;;;;;;2.67;0.50;;;15.00;99.90;;;;;;4974725;28;20526;-81
2022/07/08 01:35:32;;;;;;;0.40;0.40;;;14.90;99.90;;;;;;4974667;28;20461;-81
2022/07/08 01:38:00;;;;;;;0.40;0.40;;;14.90;99.90;;;;;;4974603;28;20473;-81
2022/07/08 01:40:27;;;;;;;0.60;0.50;;;14.80;99.90;;;;;;4974556;28;20576;-81
2022/07/08 01:42:53;;;;;;;0.47;0.47;;;14.80;99.90;;;;;;4974258;28;20824;-81
2022/07/08 01:45:20;;;;;;;8.00;0.60;;;14.70;99.90;;;;;;4974294;28;20456;-81
2022/07/08 01:47:47;;;;;;;1.07;0.53;;;14.70;99.90;;;;;;4974504;28;20480;-81
2022/07/08 01:50:14;;;;;;;14.63;0.60;;;14.70;99.90;;;;;;4974520;28;20449;-81
2022/07/08 01:52:41;;;;;;;0.50;0.50;;;14.60;99.90;;;;;;4974564;28;20459;-81
2022/07/08 01:55:09;;;;;;;0.40;0.40;;;14.60;99.90;;;;;;4974511;28;20461;-81
2022/07/08 01:57:36;;;;;;;0.93;0.50;;;14.60;99.90;;;;;;4974151;28;20984;-81
2022/07/08 02:00:05;;;;;;;0.40;0.40;;;14.50;99.90;;;;;;4974097;28;20929;-81
2022/07/08 02:02:32;;;;;;;2.77;0.57;;;14.50;99.90;;;;;;4974482;28;20547;-80
2022/07/08 02:05:01;;;;;;;0.50;0.50;;;14.50;99.90;;;;;;4974403;28;20563;-81
2022/07/08 02:07:31;;;;;;;1.13;0.50;;;14.40;99.90;;;;;;4974103;28;20470;-81
2022/07/08 02:09:58;;;;;;;0.50;0.30;;;14.40;99.90;;;;;;4974406;28;20461;-81
2022/07/08 02:12:25;;;;;;;0.50;0.50;;;14.40;99.90;;;;;;4973937;28;21007;-81
2022/07/08 02:14:53;;;;;;;0.40;0.40;;;14.30;99.90;;;;;;4975260;28;20449;-81
2022/07/08 02:17:21;;;;;;;0.60;0.60;;;14.20;99.90;;;;;;4974024;28;20485;-81
2022/07/08 02:19:49;;;;;;;0.40;0.30;;;14.20;99.90;;;;;;4975378;28;20489;-81
2022/07/08 02:22:17;;;;;;;0.90;0.53;;;14.20;99.90;;;;;;4978107;28;20453;-82
2022/07/08 02:24:44;;;;;;;0.70;0.43;;;14.20;99.90;;;;;;4977789;28;20948;-81
2022/07/08 02:27:10;;;;;;;0.50;0.50;;;14.20;99.90;;;;;;4977999;28;20480;-81
2022/07/08 02:29:38;;;;;;;1.17;0.50;;;14.10;99.90;;;;;;4977835;28;20441;-80
2022/07/08 02:32:05;;;;;;;0.47;0.40;;;14.10;99.90;;;;;;4978004;28;20457;-81
2022/07/08 02:34:32;;;;;;;0.50;0.50;;;14.00;99.90;;;;;;4977948;28;20449;-81
2022/07/08 02:36:59;;;;;;;1.80;1.03;;;14.00;99.90;;;;;;4977776;28;20849;-81
2022/07/08 02:39:26;;;;;;;0.47;0.40;;;13.90;99.90;;;;;;4977763;28;20492;-81
2022/07/08 02:41:53;;;;;;;0.50;0.50;;;13.80;99.90;;;;;;4977807;28;20446;-80
2022/07/08 02:44:19;;;;;;;0.93;0.57;;;13.80;99.90;;;;;;4977725;28;20453;-81
2022/07/08 02:46:48;;;;;;;0.53;0.30;;;13.80;99.90;;;;;;4977316;28;20981;-80
2022/07/08 02:49:15;;;;;;;1.17;0.50;;;13.80;99.90;;;;;;4977567;28;20456;-81
2022/07/08 02:51:42;;;;;;;0.60;0.60;;;13.80;99.90;;;;;;4977568;28;20453;-80
2022/07/08 02:54:09;;;;;;;0.40;0.40;;;13.80;99.90;;;;;;4977803;28;20437;-80
2022/07/08 02:56:36;;;;;;;0.80;0.60;;;13.70;99.90;;;;;;4977115;28;20476;-81
2022/07/08 02:59:04;;;;;;;0.80;0.50;;;13.70;99.90;;;;;;4977356;28;20489;-81
2022/07/08 03:01:31;;;;;;;0.50;0.37;;;13.70;99.90;;;;;;4977061;28;20996;-81
2022/07/08 03:03:59;;;;;;;0.50;0.50;;;13.70;99.90;;;;;;4977333;28;20445;-81
2022/07/08 03:06:26;;;;;;;0.63;0.50;;;13.70;99.90;;;;;;4977288;28;20472;-81
2022/07/08 03:08:52;;;;;;;1.10;0.80;;;13.60;99.90;;;;;;4977234;28;20464;-81
2022/07/08 03:11:19;;;;;;;0.53;0.40;;;13.60;99.90;;;;;;4976930;28;20480;-80
2022/07/08 03:13:46;;;;;;;0.40;0.30;;;13.60;99.90;;;;;;4977080;28;20464;-81
2022/07/08 03:16:13;;;;;;;2.50;0.50;;;13.50;99.90;;;;;;4977034;28;20476;-81
2022/07/08 03:18:39;;;;;;;0.60;0.60;;;13.60;99.90;;;;;;4978587;28;20464;-81
2022/07/08 03:21:08;;;;;;;3.90;0.80;;;13.50;99.90;;;;;;4977007;28;20481;-81
2022/07/08 03:23:35;;;;;;;0.50;0.40;;;13.50;99.90;;;;;;4977013;28;20453;-81
2022/07/08 03:26:02;;;;;;;0.40;0.30;;;13.50;99.90;;;;;;4976960;28;20449;-81
2022/07/08 03:28:28;;;;;;;0.60;0.40;;;13.50;99.90;;;;;;4976911;28;20457;-81
2022/07/08 03:30:55;;;;;;;0.40;0.30;;;13.50;99.90;;;;;;4975905;28;20972;-81
2022/07/08 03:33:22;;;;;;;0.40;0.40;;;13.50;99.90;;;;;;4976848;28;20545;-81
2022/07/08 03:35:49;;;;;;;0.43;0.33;;;13.50;99.90;;;;;;4976762;28;20486;-81
2022/07/08 03:38:17;;;;;;;0.60;0.37;;;13.50;99.90;;;;;;4976684;28;20476;-80
2022/07/08 03:43:28;;;;;;;0.50;0.40;;;13.50;99.90;;;;;;4976742;28;20406;-81
2022/07/08 03:45:54;;;;;;;0.73;0.50;;;13.60;99.90;;;;;;4976599;28;20453;-81
2022/07/08 03:48:21;;;;;;;4.13;1.07;;;13.60;99.90;;;;;;4976114;28;21015;-81
2022/07/08 03:50:48;;;;;;;0.40;0.40;;;13.60;99.90;;;;;;4976249;28;20449;-81
2022/07/08 03:53:16;;;;;;;0.50;0.40;;;13.70;99.90;;;;;;4976246;28;20434;-81
2022/07/08 03:55:43;;;;;;;0.97;0.50;;;13.70;99.90;;;;;;4976070;28;20972;-81
2022/07/08 03:58:10;;;;;;;0.40;0.30;;;13.70;99.90;;;;;;4976024;28;20473;-81
2022/07/08 04:00:36;;;;;;;0.40;0.40;;;13.70;99.90;;;;;;4976240;28;20489;-81
2022/07/08 04:03:03;;;;;;;0.43;0.43;;;13.80;99.90;;;;;;4976234;28;20465;-81
2022/07/08 04:05:30;;;;;;;1.47;0.43;;;13.80;99.90;;;;;;4976238;28;20456;-81
2022/07/08 04:07:57;;;;;;;0.50;0.40;;;13.80;99.90;;;;;;4976133;28;20477;-81
2022/07/08 04:10:25;;;;;;;0.40;0.40;;;13.90;99.90;;;;;;4976130;28;20453;-81
2022/07/08 04:12:52;;;;;;;0.40;0.40;;;13.90;99.90;;;;;;4975640;28;20489;-81
2022/07/08 04:15:18;;;;;;;0.70;0.60;;;13.90;99.90;;;;;;4975820;28;20452;-81
2022/07/08 04:17:45;;;;;;;0.77;0.60;;;13.90;99.90;;;;;;4975928;28;20469;-81
2022/07/08 04:20:12;;;;;;;0.50;0.50;;;13.90;99.90;;;;;;4975843;28;20508;-81
2022/07/08 04:22:39;;;;;;;0.83;0.70;;;13.90;99.90;;;;;;4975937;28;20450;-81
2022/07/08 04:25:07;;;;;;;1.63;0.50;;;13.90;99.90;;;;;;4975565;28;20942;-81
2022/07/08 04:27:35;;;;;;;0.40;0.30;;;13.80;99.90;;;;;;4975775;28;20581;-81
2022/07/08 04:30:02;;;;;;;0.80;0.57;;;13.80;99.90;;;;;;4975767;28;20449;-80
2022/07/08 04:32:29;;;;;;;0.30;0.30;;;13.80;99.90;;;;;;4975441;28;20833;-81
2022/07/08 04:34:58;;;;;;;0.40;0.40;;;13.80;99.90;;;;;;4975669;28;20449;-80
2022/07/08 04:37:25;;;;;;;0.50;0.47;;;13.90;99.90;;;;;;4975575;28;20472;-81
2022/07/08 04:39:52;;;;;;;0.83;0.70;;;13.90;99.90;;;;;;4975518;28;20481;-80
2022/07/08 04:42:19;;;;;;;0.50;0.50;;;13.80;99.90;;;;;;4975169;28;20449;-81
2022/07/08 04:44:47;;;;;;;3.90;0.60;;;13.90;99.90;;;;;;4974949;28;20453;-81
2022/07/08 04:47:14;;;;;;;0.70;0.53;;;13.90;99.90;;;;;;4975080;28;20998;-81
2022/07/08 04:49:40;;;;;;;0.40;0.40;;;13.90;99.90;;;;;;4975090;28;20448;-81
2022/07/08 04:52:07;;;;;;;0.40;0.40;;;14.00;99.90;;;;;;4975386;28;20453;-80
2022/07/08 04:54:36;;;;;;;0.60;0.60;;;14.00;99.90;;;;;;4975344;28;20437;-80
2022/07/08 04:57:04;;;;;;;0.43;0.43;;;14.00;99.90;;;;;;4975191;28;20481;-81
2022/07/08 04:59:31;;;;;;;0.60;0.40;;;14.10;99.90;;;;;;4975177;28;20457;-81
2022/07/08 05:01:59;;;;;;;0.80;0.80;;;14.10;99.90;;;;;;4975210;28;20453;-81
2022/07/08 05:04:26;;;;;;;0.70;0.53;;;14.10;99.90;;;;;;4974898;28;20460;-80
2022/07/08 05:06:53;;;;;;;0.60;0.60;;;14.10;99.90;;;;;;4975061;28;20469;-80
2022/07/08 05:09:19;;;;;;;1.27;0.60;;;14.10;99.90;;;;;;4975068;28;20453;-81
2022/07/08 05:11:46;;;;;;;0.50;0.40;;;14.10;99.90;;;;;;4974723;28;20842;-81
2022/07/08 05:14:14;;;;;;;6.33;1.00;;;14.10;99.90;;;;;;4975670;28;20453;-81
2022/07/08 05:16:41;;;;;;;0.80;0.50;;;14.20;99.90;;;;;;4975404;28;20517;-81
2022/07/08 05:19:09;;;;;;;0.50;0.50;;;14.20;99.90;;;;;;4974922;28;20465;-81
2022/07/08 05:21:37;;;;;;;0.57;0.57;;;14.30;99.90;;;;;;4974500;28;20489;-81
2022/07/08 05:24:04;;;;;;;0.50;0.30;;;14.30;99.90;;;;;;4974844;28;20449;-81
2022/07/08 05:26:31;;;;;;;0.47;0.47;;;14.40;99.90;;;;;;4974758;28;20465;-81
2022/07/08 05:28:58;;;;;;;0.40;0.40;;;14.50;99.90;;;;;;4974832;28;20444;-81
2022/07/08 05:31:25;;;;;;;0.40;0.40;;;14.50;99.90;;;;;;4974825;28;20445;-81
2022/07/08 05:33:51;;;;;;;0.40;0.40;;;14.50;99.90;;;;;;4974761;28;20453;-81
2022/07/08 05:36:19;;;;;;;1.50;0.43;;;14.60;99.90;;;;;;4974372;28;20454;-80
2022/07/08 05:38:46;;;;;;;1.57;0.53;;;14.70;99.90;;;;;;4974741;28;20449;-81
2022/07/08 05:41:13;;;;;;;2.20;0.60;;;14.80;99.90;;;;;;4974568;28;20488;-81
2022/07/08 05:43:40;;;;;;;0.50;0.50;;;14.90;99.90;;;;;;4974370;28;20940;-81
2022/07/08 05:46:07;;;;;;;0.70;0.40;;;14.90;99.90;;;;;;4974549;28;20449;-81
2022/07/08 05:48:33;;;;;;;0.53;0.53;;;15.00;99.90;;;;;;4974580;28;20464;-81
2022/07/08 05:51:00;;;;;;;1.20;0.60;;;15.10;99.90;;;;;;4974529;28;20461;-80
2022/07/08 05:53:28;;;;;;;0.37;0.37;;;15.20;99.90;;;;;;4974268;28;20454;-81
2022/07/08 05:55:55;;;;;;;0.87;0.50;;;15.30;99.90;;;;;;4977909;28;20445;-81
2022/07/08 05:58:22;;;;;;;0.70;0.50;;;15.40;99.90;;;;;;4978511;28;20480;-81
2022/07/08 06:00:48;;;;;;;0.40;0.40;;;15.40;99.90;;;;;;4978136;28;20995;-81
2022/07/08 06:03:15;;;;;;;0.97;0.50;;;15.60;99.90;;;;;;4978407;28;20453;-81
2022/07/08 06:05:42;;;;;;;0.40;0.40;;;15.70;99.90;;;;;;4978415;28;20477;-81
2022/07/08 06:08:09;;;;;;;0.40;0.40;;;15.80;99.90;;;;;;4978370;28;20473;-81
2022/07/08 06:10:37;;;;;;;0.50;0.50;;;15.90;99.90;;;;;;4978352;28;20445;-81
2022/07/08 06:13:03;;;;;;;1.27;0.50;;;16.00;99.90;;;;;;4977813;28;20985;-81
2022/07/08 06:15:30;;;;;;;0.50;0.40;;;16.10;99.90;;;;;;4978057;28;20414;-81
2022/07/08 06:17:57;;;;;;;0.60;0.40;;;16.30;99.90;;;;;;4978163;28;20473;-81
2022/07/08 06:20:24;;;;;;;0.40;0.40;;;16.50;99.90;;;;;;4977774;28;20480;-81
2022/07/08 06:22:51;;;;;;;0.40;0.40;;;16.60;99.90;;;;;;4978030;28;20460;-82
2022/07/08 06:25:18;;;;;;;3.30;0.60;;;16.80;99.90;;;;;;4978052;28;20512;-82
2022/07/08 06:27:46;;;;;;;0.50;0.50;;;16.90;99.90;;;;;;4977996;28;20473;-81
2022/07/08 06:30:13;;;;;;;0.40;0.40;;;17.10;99.90;;;;;;4978006;28;20453;-81
2022/07/08 06:32:40;;;;;;;0.50;0.40;;;17.20;99.90;;;;;;4977963;28;20464;-82
2022/07/08 06:35:07;;;;;;;0.37;0.30;;;17.60;99.90;;;;;;4977896;28;20452;-82
2022/07/08 06:37:34;;;;;;;2.43;0.60;;;17.90;99.90;;;;;;4977810;28;20477;-82
2022/07/08 06:40:01;;;;;;;0.70;0.50;;;18.00;99.90;;;;;;4977749;28;20457;-82
2022/07/08 06:42:28;;;;;;;0.40;0.40;;;18.20;99.90;;;;;;4977475;28;20462;-83
2022/07/08 06:44:56;;;;;;;0.40;0.40;;;18.70;99.90;;;;;;4977745;28;20453;-82
2022/07/08 06:47:23;;;;;;;1.83;0.63;;;18.90;99.90;;;;;;4977624;28;20482;-82
2022/07/08 06:49:50;;;;;;;1.03;0.47;;;19.00;99.90;;;;;;4977650;28;20464;-83
2022/07/08 06:52:17;;;;;;;1.57;0.40;;;19.40;99.90;;;;;;4977304;28;20448;-82
2022/07/08 06:54:44;;;;;;;1.47;0.50;;;19.50;99.90;;;;;;4977604;28;20453;-82
2022/07/08 06:57:10;;;;;;;0.40;0.40;;;19.70;99.90;;;;;;4977460;28;20481;-82
2022/07/08 06:59:38;;;;;;;0.60;0.50;;;19.80;99.80;;;;;;4977249;28;20925;-82
2022/07/08 07:02:06;;;;;;;0.30;0.30;;;20.00;98.70;;;;;;4977045;28;20484;-82
2022/07/08 07:04:33;;;;;;;0.50;0.50;;;19.90;99.00;;;;;;4977417;28;20460;-82
2022/07/08 07:07:00;;;;;;;0.40;0.40;;;19.90;98.20;;;;;;4976231;28;20472;-82
2022/07/08 07:09:26;;;;;;;1.27;0.57;;;19.80;97.80;;;;;;4977332;28;20462;-82
2022/07/08 07:11:53;;;;;;;0.70;0.50;;;19.60;98.60;;;;;;4976843;28;20862;-82
2022/07/08 07:14:20;;;;;;;3.00;0.80;;;19.70;98.90;;;;;;4977463;28;20441;-83
2022/07/08 07:16:47;;;;;;;1.47;0.57;;;19.70;98.30;;;;;;4977125;28;20468;-82
2022/07/08 07:19:15;;;;;;;0.40;0.33;;;19.50;98.70;;;;;;4977116;28;20456;-83
2022/07/08 07:21:41;;;;;;;0.50;0.50;;;19.40;97.90;;;;;;4976974;28;20852;-82
2022/07/08 07:24:08;;;;;;;0.40;0.40;;;19.30;96.90;;;;;;4977081;28;20438;-82
2022/07/08 07:26:36;;;;;;;0.50;0.50;;;19.10;97.70;;;;;;4976894;28;20470;-82
2022/07/08 07:29:03;;;;;;;0.47;0.47;;;18.70;99.00;;;;;;4976628;28;20500;-83
2022/07/08 07:31:30;;;;;;;0.40;0.40;;;18.50;99.90;;;;;;4976913;28;20456;-82
2022/07/08 07:33:57;;;;;;;0.50;0.50;;;18.30;99.70;;;;;;4976876;28;20449;-82
2022/07/08 07:36:26;;;;;;;0.40;0.40;;;18.10;99.90;;;;;;4976444;28;20968;-82
2022/07/08 07:38:53;;;;;;;0.90;0.40;;;18.20;99.90;;;;;;4977049;28;20446;-83
2022/07/08 07:41:20;;;;;;;0.50;0.50;;;18.40;99.90;;;;;;4976661;28;20488;-82
2022/07/08 07:43:47;;;;;;;1.27;0.40;;;18.50;99.90;;;;;;4976893;28;20456;-82
2022/07/08 07:46:14;;;;;;;0.40;0.40;;;18.50;99.90;;;;;;4976668;28;20453;-83
2022/07/08 07:48:41;;;;;;;0.43;0.40;;;18.60;99.90;;;;;;4976775;28;20441;-82
2022/07/08 07:51:07;;;;;;;0.40;0.40;;;18.50;99.70;;;;;;4976327;28;20446;-82
2022/07/08 07:53:36;;;;;;;1.33;0.50;;;18.40;99.90;;;;;;4976547;28;20449;-83
2022/07/08 07:56:03;;;;;;;1.57;0.60;;;18.30;99.90;;;;;;4976426;28;20496;-82
2022/07/08 07:58:30;;;;;;;0.73;0.50;;;18.30;99.30;;;;;;4976121;28;20448;-82
2022/07/08 08:00:56;;;;;;;1.03;0.70;;;18.20;99.30;;;;;;4976031;28;20477;-82
2022/07/08 08:03:23;;;;;;;0.40;0.40;;;18.20;99.90;;;;;;4976114;28;21083;-83
2022/07/08 08:05:50;;;;;;;0.40;0.30;;;18.40;99.90;;;;;;4976273;28;20489;-83
2022/07/08 08:08:17;;;;;;;1.00;0.37;;;18.60;99.90;;;;;;4976159;28;20474;-82
2022/07/08 08:10:45;;;;;;;1.13;0.40;;;18.70;99.90;;;;;;4975964;28;20508;-81
2022/07/08 08:13:12;;;;;;;0.43;0.40;;;19.00;99.90;;;;;;4976138;28;20457;-83
2022/07/08 08:15:39;;;;;;;1.30;0.50;;;19.30;99.90;;;;;;4975812;28;20453;-82
2022/07/08 08:18:05;;;;;;;2.50;0.63;;;19.40;99.30;;;;;;4975749;28;20484;-82
2022/07/08 08:20:32;;;;;;;0.87;0.57;;;19.40;99.30;;;;;;4975601;28;20469;-82
2022/07/08 08:22:59;;;;;;;1.43;0.60;;;19.40;99.10;;;;;;4975990;28;20812;-82
2022/07/08 08:25:27;;;;;;;0.60;0.40;;;19.20;98.50;;;;;;4976194;28;20448;-82
2022/07/08 08:27:56;;;;;;;0.60;0.50;;;19.00;98.50;;;;;;4975629;28;20832;-82
2022/07/08 08:30:23;;;;;;;0.40;0.40;;;19.00;98.20;;;;;;4975545;28;20442;-82
2022/07/08 08:32:50;;;;;;;1.13;0.40;;;19.20;99.10;;;;;;4975863;28;20448;-83
2022/07/08 08:35:17;;;;;;;0.33;0.33;;;19.60;97.50;;;;;;4975494;28;20449;-83
2022/07/08 08:37:44;;;;;;;0.60;0.60;;;20.10;97.70;;;;;;4975876;28;20465;-82
2022/07/08 08:40:12;;;;;;;0.40;0.40;;;20.60;96.90;;;;;;4975874;28;20539;-83
2022/07/08 08:42:40;;;;;;;0.60;0.60;;;21.10;94.80;;;;;;4958387;28;20495;-82
2022/07/08 08:45:10;;;;;;;0.47;0.47;;;21.20;94.80;;;;;;4975334;28;20459;-82
2022/07/08 08:47:37;;;;;;;4.30;0.40;;;21.30;95.80;;;;;;4975740;28;20221;-82
2022/07/08 08:52:52;;;;;;;0.40;0.30;;;21.50;94.10;;;;;;4975286;28;20184;-82
2022/07/08 08:55:26;;;;;;;0.50;0.43;;;21.60;94.80;;;;;;4975407;28;20205;-82
2022/07/08 08:57:56;;;;;;;0.45;0.45;;;21.60;94.80;;;;;;4975060;28;20225;-82
2022/07/08 09:00:24;;;;;;;0.57;0.57;;;21.60;94.30;;;;;;4975161;28;20700;-81
2022/07/08 09:02:51;;;;;;;0.45;0.45;;;21.60;94.10;;;;;;4975099;28;20260;-82
2022/07/08 09:05:18;;;;;;;0.60;0.47;;;21.60;93.90;;;;;;4975077;28;20198;-82
2022/07/08 09:07:45;;;;;;;0.50;0.50;;;21.80;92.70;;;;;;4974882;28;20748;-82
2022/07/08 09:10:12;;;;;;;1.67;0.40;;;22.00;92.80;;;;;;4975300;28;20212;-82
2022/07/08 09:12:38;;;;;;;0.85;0.60;;;22.20;93.60;;;;;;4974625;28;20660;-82
2022/07/08 09:15:06;;;;;;;0.52;0.52;;;22.40;93.10;;;;;;4975053;28;20205;-82
2022/07/08 09:17:43;;;;;;;0.45;0.45;;;22.70;92.30;;;;;;4975770;28;20225;-82
2022/07/08 09:20:10;;;;;;;0.73;0.50;;;22.70;90.60;;;;;;4975204;28;20640;-82
2022/07/08 09:22:37;;;;;;;0.40;0.40;;;22.70;90.80;;;;;;4974830;28;20723;-83
2022/07/08 09:25:05;;;;;;;0.93;0.40;;;22.50;90.00;;;;;;4975353;28;20455;-79
2022/07/08 09:27:32;;;;;;;0.70;0.70;;;22.20;90.00;;;;;;4974830;28;20472;-82
2022/07/08 09:30:00;;;;;;;0.63;0.50;;;21.90;90.70;;;;;;4974013;28;20831;-77
2022/07/08 09:32:28;;;;;;;0.70;0.50;;;21.70;91.50;;;;;;4974509;28;20680;-78
2022/07/08 09:34:56;;;;;;;0.40;0.40;;;21.50;91.50;;;;;;4974740;28;20456;-78
2022/07/08 09:37:23;;;;;;;2.70;0.83;;;21.30;92.20;;;;;;4974692;28;20465;-78
2022/07/08 09:39:50;;;;;;;0.40;0.40;;;21.20;93.00;;;;;;4974739;28;20456;-77
2022/07/08 09:42:17;;;;;;;0.50;0.50;;;21.20;92.30;;;;;;4974771;28;20575;-81
2022/07/08 09:44:51;;;;;;;0.60;0.43;;;21.10;91.80;;;;;;4974748;28;20456;-85
2022/07/08 09:47:18;;;;;;;7.40;0.50;;;20.90;91.30;;;;;;4974373;28;20980;-82
2022/07/08 09:49:46;;;;;;;0.50;0.40;;;20.60;92.50;;;;;;4974343;28;20951;-81
2022/07/08 09:52:22;;;;;;;0.87;0.53;;;20.30;92.20;;;;;;4974576;28;20452;-81
2022/07/08 09:55:00;;;;;;;0.50;0.50;;;20.30;93.60;;;;;;4974691;28;20439;-82
2022/07/08 09:57:28;;;;;;;0.53;0.50;;;20.50;93.60;;;;;;4974508;28;20472;-82
2022/07/08 09:59:55;;;;;;;1.83;0.50;;;20.70;93.20;;;;;;4974341;28;20441;-82
2022/07/08 10:02:23;;;;;;;0.53;0.53;;;21.00;92.60;;;;;;4974459;28;20480;-82
2022/07/08 10:04:50;;;;;;;1.37;0.50;;;21.30;90.90;;;;;;4974538;28;20444;-82
2022/07/08 10:07:18;;;;;;;0.43;0.43;;;21.40;91.40;;;;;;4974036;28;20500;-82
2022/07/08 10:09:45;;;;;;;0.50;0.50;;;21.50;92.20;;;;;;4974586;28;20967;-82
2022/07/08 10:12:13;;;;;;;0.70;0.40;;;21.60;90.90;;;;;;4974147;28;20484;-82
2022/07/08 10:14:42;;;;;;;0.40;0.40;;;21.50;91.60;;;;;;4974194;28;20433;-83
2022/07/08 10:17:14;;;;;;;0.67;0.47;;;21.70;90.30;;;;;;4974418;28;20472;-82
2022/07/08 10:19:41;;;;;;;0.73;0.50;;;21.70;88.40;;;;;;4974393;28;20438;-83
2022/07/08 10:22:10;;;;;;;0.40;0.37;;;21.60;88.00;;;;;;4974013;28;20481;-82
2022/07/08 10:24:42;;;;;;;0.50;0.40;;;21.50;88.50;;;;;;4974251;28;20449;-83
2022/07/08 10:27:10;;;;;;;0.63;0.63;;;21.50;90.10;;;;;;4974249;28;20525;-83
2022/07/08 10:29:39;;;;;;;1.07;0.50;;;21.50;90.20;;;;;;4973998;28;20508;-82
2022/07/08 10:32:23;;;;;;;0.50;0.40;;;21.50;90.90;;;;;;4974233;28;20580;-83
2022/07/08 10:35:08;;;;;;;0.67;0.40;;;21.80;90.90;;;;;;4973940;28;20437;-83
2022/07/08 10:37:49;;;;;;;0.50;0.50;;;21.90;91.00;;;;;;4974162;28;20477;-82
2022/07/08 10:40:49;;;;;;;1.17;0.50;;;22.10;89.70;;;;;;4974703;28;20448;-82
2022/07/08 10:43:23;;;;;;;0.67;0.60;;;22.20;89.50;;;;;;4977449;28;21080;-82
2022/07/08 10:46:01;;;;;;;0.60;0.50;;;22.30;89.60;;;;;;4978088;28;20477;-82
2022/07/08 10:48:28;;;;;;;3.60;0.50;;;22.30;88.90;;;;;;4977386;28;20821;-82
2022/07/08 10:50:56;;;;;;;0.60;0.50;;;22.30;90.00;;;;;;4977649;28;20453;-82
2022/07/08 10:53:23;;;;;;;0.90;0.43;;;22.30;89.40;;;;;;4977393;28;21056;-82
2022/07/08 10:55:53;;;;;;;0.50;0.50;;;22.30;89.80;;;;;;4977570;28;20448;-82
2022/07/08 10:58:19;;;;;;;1.57;0.50;;;22.40;87.20;;;;;;4977188;28;20472;-82
2022/07/08 11:01:19;;;;;;;0.60;0.60;;;22.60;85.50;;;;;;4977481;28;20937;-83
2022/07/08 11:03:47;;;;;;;0.70;0.60;;;22.70;85.50;;;;;;4977290;28;20803;-85
2022/07/08 11:06:34;;;;;;;0.57;0.50;;;23.10;85.30;;;;;;4977492;28;20206;-85
2022/07/08 11:09:02;;;;;;;0.40;0.40;;;23.50;83.90;;;;;;4977280;28;21053;-85
2022/07/08 11:11:30;;;;;;;0.50;0.50;;;23.50;84.50;;;;;;4977223;28;20244;-85
2022/07/08 11:13:59;;;;;;;0.60;0.50;;;23.60;84.60;;;;;;4977395;28;20205;-85
2022/07/08 11:16:32;;;;;;;0.68;0.50;;;23.50;83.40;;;;;;4977182;28;20233;-82
2022/07/08 11:18:59;;;;;;;0.50;0.50;;;23.40;84.40;;;;;;4977201;28;20201;-81
2022/07/08 11:21:26;;;;;;;0.40;0.40;;;23.40;81.50;;;;;;4976784;28;20689;-81
2022/07/08 11:23:53;;;;;;;0.50;0.50;;;23.20;80.00;;;;;;4977036;28;20205;-81
2022/07/08 11:26:20;;;;;;;0.50;0.50;;;23.10;81.60;;;;;;4976858;28;20201;-81
2022/07/08 11:28:48;;;;;;;0.50;0.50;;;22.80;83.00;;;;;;4976997;28;20241;-82
2022/07/08 11:31:25;;;;;;;3.10;0.70;;;22.70;82.70;;;;;;4977025;28;20435;-83
2022/07/08 11:33:53;;;;;;;0.60;0.50;;;22.50;81.70;;;;;;4976714;28;20430;-82
2022/07/08 11:36:20;;;;;;;0.63;0.63;;;22.30;82.70;;;;;;4976496;28;20456;-82
2022/07/08 11:38:48;;;;;;;0.40;0.40;;;22.20;85.00;;;;;;4976830;28;20460;-82
2022/07/08 11:41:17;;;;;;;1.23;0.60;;;22.10;84.00;;;;;;4976750;28;20456;-82
2022/07/08 11:43:44;;;;;;;1.30;0.60;;;22.10;84.70;;;;;;4976397;28;20484;-82
2022/07/08 11:46:20;;;;;;;0.50;0.50;;;22.10;85.00;;;;;;4976309;28;20448;-82
2022/07/08 11:48:47;;;;;;;0.50;0.50;;;22.10;86.60;;;;;;4976599;28;20463;-82
2022/07/08 11:51:14;;;;;;;0.57;0.57;;;22.20;86.10;;;;;;4976636;28;20456;-83
2022/07/08 11:53:41;;;;;;;0.50;0.43;;;22.30;83.80;;;;;;4975983;28;20448;-83
2022/07/08 11:56:09;;;;;;;0.50;0.40;;;22.10;84.00;;;;;;4976433;28;20452;-82
2022/07/08 11:58:35;;;;;;;0.50;0.50;;;22.10;83.50;;;;;;4976563;28;20456;-82
2022/07/08 12:01:03;;;;;;;1.80;1.10;;;21.90;83.90;;;;;;4976476;28;20499;-82
2022/07/08 12:03:33;;;;;;;0.50;0.50;;;21.80;86.80;;;;;;4975959;28;20491;-83
2022/07/08 12:06:00;;;;;;;0.43;0.43;;;21.60;87.30;;;;;;4976326;28;20452;-83
2022/07/08 12:08:27;;;;;;;0.40;0.40;;;21.80;85.90;;;;;;4975955;28;20468;-82
2022/07/08 12:11:12;;;;;;;0.60;0.60;;;21.80;87.70;;;;;;4975990;28;20452;-82
2022/07/08 12:13:44;;;;;;;0.60;0.60;;;21.90;87.10;;;;;;4976194;28;20430;-82
2022/07/08 12:16:11;;;;;;;0.50;0.40;;;22.00;85.40;;;;;;4976274;28;20773;-82
2022/07/08 12:18:44;;;;;;;0.50;0.50;;;22.00;82.00;;;;;;4976071;28;20442;-82
2022/07/08 12:21:19;;;;;;;0.50;0.43;;;21.80;83.70;;;;;;4976100;28;20524;-81
2022/07/08 12:23:54;;;;;;;0.40;0.30;;;21.80;84.40;;;;;;4975557;28;20583;-81
2022/07/08 12:26:21;;;;;;;0.40;0.40;;;21.70;83.30;;;;;;4975471;28;20417;-82
2022/07/08 12:28:48;;;;;;;0.77;0.63;;;21.50;83.70;;;;;;4975785;28;20452;-82
2022/07/08 12:31:32;;;;;;;0.33;0.30;;;21.50;82.90;;;;;;4975827;28;20463;-82
2022/07/08 12:34:04;;;;;;;0.70;0.50;;;21.40;84.80;;;;;;4975514;28;20742;-81
2022/07/08 12:36:31;;;;;;;0.50;0.40;;;21.40;83.30;;;;;;4975687;28;20469;-81
2022/07/08 12:38:58;;;;;;;0.60;0.60;;;21.40;84.50;;;;;;4975398;28;20977;-82
2022/07/08 12:41:25;;;;;;;0.50;0.50;;;21.40;83.40;;;;;;4975645;28;20453;-82
2022/07/08 12:43:52;;;;;;;0.70;0.50;;;21.30;83.50;;;;;;4975331;28;20481;-81
2022/07/08 12:46:19;;;;;;;0.47;0.47;;;21.30;83.50;;;;;;4975585;28;20449;-82
2022/07/08 12:48:45;;;;;;;0.50;0.50;;;21.30;82.60;;;;;;4976355;28;20449;-81
2022/07/08 12:51:13;;;;;;;0.50;0.40;;;21.00;84.30;;;;;;4976279;28;20476;-82
2022/07/08 12:53:40;;;;;;;0.50;0.50;;;20.90;84.30;;;;;;4976567;28;20453;-81
2022/07/08 12:56:07;;;;;;;2.50;0.90;;;20.80;86.50;;;;;;4976049;28;20457;-81
2022/07/08 12:58:34;;;;;;;0.40;0.40;;;20.80;86.50;;;;;;4975345;28;20457;-81